sensor_id;sensor_type;location;lat;lon;timestamp;pressure;altitude;pressure_sealevel;temperature;humidity
3254;BME280;1639;42.804;23.342;2022-09-09T00:00:27;72461.47;;;-148.52;63.05
3254;BME280;1639;42.804;23.342;2022-09-09T00:06:10;72484.22;;;-148.52;64.55
3254;BME280;1639;42.804;23.342;2022-09-09T00:08:48;72498.69;;;-148.52;64.54
3254;BME280;1639;42.804;23.342;2022-09-09T00:11:26;72504.91;;;-148.52;65.76
3254;BME280;1639;42.804;23.342;2022-09-09T00:13:53;72529.72;;;-148.52;65.50
3254;BME280;1639;42.804;23.342;2022-09-09T00:16:25;72509.03;;;-148.52;65.27
3254;BME280;1639;42.804;23.342;2022-09-09T00:19:07;72509.03;;;-148.52;66.25
3254;BME280;1639;42.804;23.342;2022-09-09T00:21:38;72519.38;;;-148.52;66.83
3254;BME280;1639;42.804;23.342;2022-09-09T00:24:32;72509.03;;;-148.52;67.06
3254;BME280;1639;42.804;23.342;2022-09-09T00:27:15;72509.03;;;-148.52;67.79
3254;BME280;1639;42.804;23.342;2022-09-09T00:32:14;72509.03;;;-148.52;67.42
3254;BME280;1639;42.804;23.342;2022-09-09T00:34:58;72496.63;;;-148.52;67.18
3254;BME280;1639;42.804;23.342;2022-09-09T00:37:26;72475.94;;;-148.52;66.15
3254;BME280;1639;42.804;23.342;2022-09-09T00:39:55;72471.81;;;-148.52;66.00
3254;BME280;1639;42.804;23.342;2022-09-09T00:42:27;72473.88;;;-148.52;66.44
3254;BME280;1639;42.804;23.342;2022-09-09T00:47:53;72442.84;;;-148.52;65.15
3254;BME280;1639;42.804;23.342;2022-09-09T00:55:55;72473.88;;;-148.52;66.26
3254;BME280;1639;42.804;23.342;2022-09-09T00:58:24;72517.31;;;-148.52;68.06
3254;BME280;1639;42.804;23.342;2022-09-09T01:01:08;72523.50;;;-148.52;68.94
3254;BME280;1639;42.804;23.342;2022-09-09T01:03:49;72502.81;;;-148.52;68.42
3254;BME280;1639;42.804;23.342;2022-09-09T01:06:31;72486.28;;;-148.52;68.08
3254;BME280;1639;42.804;23.342;2022-09-09T01:09:11;72473.88;;;-148.52;67.69
3254;BME280;1639;42.804;23.342;2022-09-09T01:12:01;72480.09;;;-148.52;67.65
3254;BME280;1639;42.804;23.342;2022-09-09T01:17:03;72457.34;;;-148.52;65.85
3254;BME280;1639;42.804;23.342;2022-09-09T01:22:44;72440.78;;;-148.52;64.88
3254;BME280;1639;42.804;23.342;2022-09-09T01:25:29;72459.41;;;-148.52;65.68
3254;BME280;1639;42.804;23.342;2022-09-09T01:27:58;72469.75;;;-148.52;65.91
3254;BME280;1639;42.804;23.342;2022-09-09T01:30:26;72457.34;;;-148.52;64.96
3254;BME280;1639;42.804;23.342;2022-09-09T01:32:57;72475.94;;;-148.52;65.82
3254;BME280;1639;42.804;23.342;2022-09-09T01:35:40;72494.56;;;-148.52;66.53
3254;BME280;1639;42.804;23.342;2022-09-09T01:38:09;72475.94;;;-148.52;65.90
3254;BME280;1639;42.804;23.342;2022-09-09T01:40:35;72486.28;;;-148.52;65.75
3254;BME280;1639;42.804;23.342;2022-09-09T01:43:00;72511.09;;;-148.52;66.51
3254;BME280;1639;42.804;23.342;2022-09-09T01:45:26;72521.44;;;-148.52;66.92
3254;BME280;1639;42.804;23.342;2022-09-09T01:47:52;72525.56;;;-148.52;67.16
3254;BME280;1639;42.804;23.342;2022-09-09T01:50:19;72519.38;;;-148.52;66.82
3254;BME280;1639;42.804;23.342;2022-09-09T01:52:46;72509.03;;;-148.52;66.03
3254;BME280;1639;42.804;23.342;2022-09-09T01:55:14;72492.50;;;-148.52;64.93
3254;BME280;1639;42.804;23.342;2022-09-09T01:57:53;72513.16;;;-148.52;64.71
3254;BME280;1639;42.804;23.342;2022-09-09T02:00:22;72552.47;;;-148.52;65.81
3254;BME280;1639;42.804;23.342;2022-09-09T02:03:05;72550.38;;;-148.52;65.37
3254;BME280;1639;42.804;23.342;2022-09-09T02:05:43;72583.47;;;-148.52;66.02
3254;BME280;1639;42.804;23.342;2022-09-09T02:08:18;72608.28;;;-148.52;67.64
3254;BME280;1639;42.804;23.342;2022-09-09T02:10:55;72620.69;;;-148.52;67.87
3254;BME280;1639;42.804;23.342;2022-09-09T02:13:22;72637.25;;;-148.52;69.35
3254;BME280;1639;42.804;23.342;2022-09-09T02:18:15;72643.44;;;-148.52;69.14
3254;BME280;1639;42.804;23.342;2022-09-09T02:20:44;72622.78;;;-148.52;68.77
3254;BME280;1639;42.804;23.342;2022-09-09T02:23:12;72620.69;;;-148.52;68.49
3254;BME280;1639;42.804;23.342;2022-09-09T02:25:40;72626.91;;;-148.52;68.32
3254;BME280;1639;42.804;23.342;2022-09-09T02:28:08;72633.13;;;-148.52;69.25
3254;BME280;1639;42.804;23.342;2022-09-09T02:30:37;72631.03;;;-148.52;68.75
3254;BME280;1639;42.804;23.342;2022-09-09T02:33:04;72626.91;;;-148.52;68.71
3254;BME280;1639;42.804;23.342;2022-09-09T02:35:32;72624.84;;;-148.52;67.91
3254;BME280;1639;42.804;23.342;2022-09-09T02:38:04;72622.78;;;-148.52;67.81
3254;BME280;1639;42.804;23.342;2022-09-09T02:40:31;72612.44;;;-148.52;67.83
3254;BME280;1639;42.804;23.342;2022-09-09T02:42:57;72624.84;;;-148.52;69.15
3254;BME280;1639;42.804;23.342;2022-09-09T02:45:29;72612.44;;;-148.52;68.74
3254;BME280;1639;42.804;23.342;2022-09-09T02:48:11;72612.44;;;-148.52;69.23
3254;BME280;1639;42.804;23.342;2022-09-09T02:50:59;72608.28;;;-148.52;68.98
3254;BME280;1639;42.804;23.342;2022-09-09T02:54:02;72626.91;;;-148.52;68.79
3254;BME280;1639;42.804;23.342;2022-09-09T02:56:31;72647.59;;;-148.52;70.32
3254;BME280;1639;42.804;23.342;2022-09-09T02:58:58;72647.59;;;-148.52;71.11
3254;BME280;1639;42.804;23.342;2022-09-09T03:01:24;72657.94;;;-148.52;71.39
3254;BME280;1639;42.804;23.342;2022-09-09T03:03:50;72664.13;;;-148.52;70.76
3254;BME280;1639;42.804;23.342;2022-09-09T03:06:15;72655.84;;;-148.52;69.64
3254;BME280;1639;42.804;23.342;2022-09-09T03:08:41;72668.28;;;-148.52;69.22
3254;BME280;1639;42.804;23.342;2022-09-09T03:11:07;72678.59;;;-148.52;69.29
3254;BME280;1639;42.804;23.342;2022-09-09T03:13:32;72707.56;;;-148.52;70.07
3254;BME280;1639;42.804;23.342;2022-09-09T03:15:58;72722.03;;;-148.52;71.58
3254;BME280;1639;42.804;23.342;2022-09-09T03:18:25;72719.97;;;-148.52;70.33
3254;BME280;1639;42.804;23.342;2022-09-09T03:20:50;72765.47;;;-148.52;71.57
3254;BME280;1639;42.804;23.342;2022-09-09T03:23:16;72769.59;;;-148.52;72.06
3254;BME280;1639;42.804;23.342;2022-09-09T03:25:51;72786.16;;;-148.52;74.26
3254;BME280;1639;42.804;23.342;2022-09-09T03:28:17;72765.47;;;-148.52;74.05
3254;BME280;1639;42.804;23.342;2022-09-09T03:30:43;72790.28;;;-148.52;75.24
3254;BME280;1639;42.804;23.342;2022-09-09T03:33:08;72767.53;;;-148.52;75.46
3254;BME280;1639;42.804;23.342;2022-09-09T03:35:34;72740.66;;;-148.52;73.20
3254;BME280;1639;42.804;23.342;2022-09-09T03:37:59;72757.19;;;-148.52;74.21
3254;BME280;1639;42.804;23.342;2022-09-09T03:40:26;72744.78;;;-148.52;73.39
3254;BME280;1639;42.804;23.342;2022-09-09T03:42:51;72748.91;;;-148.52;73.88
3254;BME280;1639;42.804;23.342;2022-09-09T03:45:17;72744.78;;;-148.52;73.49
3254;BME280;1639;42.804;23.342;2022-09-09T03:47:42;72748.91;;;-148.52;74.33
3254;BME280;1639;42.804;23.342;2022-09-09T03:50:08;72746.84;;;-148.52;74.65
3254;BME280;1639;42.804;23.342;2022-09-09T03:52:39;72728.25;;;-148.52;73.26
3254;BME280;1639;42.804;23.342;2022-09-09T03:55:06;72724.09;;;-148.52;73.40
3254;BME280;1639;42.804;23.342;2022-09-09T03:57:32;72728.25;;;-148.52;72.49
3254;BME280;1639;42.804;23.342;2022-09-09T04:00:03;72728.25;;;-148.52;72.73
3254;BME280;1639;42.804;23.342;2022-09-09T04:02:30;72722.03;;;-148.52;72.72
3254;BME280;1639;42.804;23.342;2022-09-09T04:04:55;72732.38;;;-148.52;73.73
3254;BME280;1639;42.804;23.342;2022-09-09T04:07:21;72726.19;;;-148.52;73.76
3254;BME280;1639;42.804;23.342;2022-09-09T04:09:46;72711.69;;;-148.52;72.54
3254;BME280;1639;42.804;23.342;2022-09-09T04:12:12;72709.63;;;-148.52;72.62
3254;BME280;1639;42.804;23.342;2022-09-09T04:14:38;72705.50;;;-148.52;72.42
3254;BME280;1639;42.804;23.342;2022-09-09T04:17:03;72711.69;;;-148.52;73.26
3254;BME280;1639;42.804;23.342;2022-09-09T04:19:31;72707.56;;;-148.52;73.57
3254;BME280;1639;42.804;23.342;2022-09-09T04:21:57;72691.00;;;-148.52;72.99
3254;BME280;1639;42.804;23.342;2022-09-09T04:24:22;72695.16;;;-148.52;73.49
3254;BME280;1639;42.804;23.342;2022-09-09T04:26:48;72674.47;;;-148.52;72.69
3254;BME280;1639;42.804;23.342;2022-09-09T04:29:14;72688.94;;;-148.52;73.47
3254;BME280;1639;42.804;23.342;2022-09-09T04:31:39;72693.09;;;-148.52;73.73
3254;BME280;1639;42.804;23.342;2022-09-09T04:34:08;72709.63;;;-148.52;73.49
3254;BME280;1639;42.804;23.342;2022-09-09T04:36:34;72691.00;;;-148.52;73.51
3254;BME280;1639;42.804;23.342;2022-09-09T04:39:00;72680.69;;;-148.52;72.56
3254;BME280;1639;42.804;23.342;2022-09-09T04:41:26;72672.41;;;-148.52;73.39
3254;BME280;1639;42.804;23.342;2022-09-09T04:43:51;72649.66;;;-148.52;72.11
3254;BME280;1639;42.804;23.342;2022-09-09T04:46:19;72641.38;;;-148.52;71.48
3254;BME280;1639;42.804;23.342;2022-09-09T04:48:44;72635.19;;;-148.52;72.33
3254;BME280;1639;42.804;23.342;2022-09-09T04:51:13;72622.78;;;-148.52;71.77
3254;BME280;1639;42.804;23.342;2022-09-09T04:53:39;72600.03;;;-148.52;70.88
3254;BME280;1639;42.804;23.342;2022-09-09T04:56:13;72610.38;;;-148.52;71.13
3254;BME280;1639;42.804;23.342;2022-09-09T04:58:40;72595.88;;;-148.52;71.00
3254;BME280;1639;42.804;23.342;2022-09-09T05:01:11;72575.22;;;-148.52;69.75
3254;BME280;1639;42.804;23.342;2022-09-09T05:03:37;72562.81;;;-148.52;70.78
3254;BME280;1639;42.804;23.342;2022-09-09T05:06:07;72564.88;;;-148.52;71.04
3254;BME280;1639;42.804;23.342;2022-09-09T05:08:34;72548.31;;;-148.52;69.17
3254;BME280;1639;42.804;23.342;2022-09-09T05:10:59;72527.66;;;-148.52;68.51
3254;BME280;1639;42.804;23.342;2022-09-09T05:13:26;72513.16;;;-148.52;68.33
3254;BME280;1639;42.804;23.342;2022-09-09T05:15:52;72506.97;;;-148.52;67.91
3254;BME280;1639;42.804;23.342;2022-09-09T05:18:18;72504.91;;;-148.52;67.11
3254;BME280;1639;42.804;23.342;2022-09-09T05:20:43;72492.50;;;-148.52;67.52
3254;BME280;1639;42.804;23.342;2022-09-09T05:23:09;72475.94;;;-148.52;67.21
3254;BME280;1639;42.804;23.342;2022-09-09T05:25:36;72467.66;;;-148.52;66.36
3254;BME280;1639;42.804;23.342;2022-09-09T05:28:01;72461.47;;;-148.52;65.89
3254;BME280;1639;42.804;23.342;2022-09-09T05:30:27;72492.50;;;-148.52;65.26
3254;BME280;1639;42.804;23.342;2022-09-09T05:32:56;72457.34;;;-148.52;64.98
3254;BME280;1639;42.804;23.342;2022-09-09T05:35:21;72438.72;;;-148.52;64.43
3254;BME280;1639;42.804;23.342;2022-09-09T05:37:48;72434.59;;;-148.52;64.54
3254;BME280;1639;42.804;23.342;2022-09-09T05:40:14;72426.31;;;-148.52;63.83
3254;BME280;1639;42.804;23.342;2022-09-09T05:42:40;72395.28;;;-148.52;63.04
3254;BME280;1639;42.804;23.342;2022-09-09T05:45:07;72368.41;;;-148.52;62.38
3254;BME280;1639;42.804;23.342;2022-09-09T05:47:33;72343.59;;;-148.52;61.52
3254;BME280;1639;42.804;23.342;2022-09-09T05:49:58;72329.13;;;-148.52;60.70
3254;BME280;1639;42.804;23.342;2022-09-09T05:52:24;72304.31;;;-148.52;60.43
3254;BME280;1639;42.804;23.342;2022-09-09T05:54:51;72289.84;;;-148.52;60.61
3254;BME280;1639;42.804;23.342;2022-09-09T05:57:17;72277.44;;;-148.52;59.55
3254;BME280;1639;42.804;23.342;2022-09-09T05:59:44;72298.09;;;-148.52;58.67
3254;BME280;1639;42.804;23.342;2022-09-09T06:02:09;72269.16;;;-148.52;58.40
3254;BME280;1639;42.804;23.342;2022-09-09T06:04:35;72244.34;;;-148.52;57.14
3254;BME280;1639;42.804;23.342;2022-09-09T06:07:00;72215.38;;;-148.52;57.49
3254;BME280;1639;42.804;23.342;2022-09-09T06:09:26;72178.16;;;-148.52;55.84
3254;BME280;1639;42.804;23.342;2022-09-09T06:11:51;72153.34;;;-148.52;55.39
3254;BME280;1639;42.804;23.342;2022-09-09T06:14:17;72132.69;;;-148.52;55.03
3254;BME280;1639;42.804;23.342;2022-09-09T06:16:46;72120.28;;;-148.52;54.69
3254;BME280;1639;42.804;23.342;2022-09-09T06:19:12;72089.25;;;-148.52;53.57
3254;BME280;1639;42.804;23.342;2022-09-09T06:21:38;72070.66;;;-148.52;52.19
3254;BME280;1639;42.804;23.342;2022-09-09T06:24:04;72062.38;;;-148.52;53.57
3254;BME280;1639;42.804;23.342;2022-09-09T06:26:36;72068.59;;;-148.52;53.25
3254;BME280;1639;42.804;23.342;2022-09-09T06:29:03;72058.25;;;-148.52;52.25
3254;BME280;1639;42.804;23.342;2022-09-09T06:31:30;72052.03;;;-148.52;51.88
3254;BME280;1639;42.804;23.342;2022-09-09T06:33:57;72016.88;;;-148.52;53.39
3254;BME280;1639;42.804;23.342;2022-09-09T06:36:24;71971.41;;;-148.52;52.74
3254;BME280;1639;42.804;23.342;2022-09-09T06:38:50;71954.84;;;-148.52;50.46
3254;BME280;1639;42.804;23.342;2022-09-09T06:41:18;71954.84;;;-148.52;50.81
3254;BME280;1639;42.804;23.342;2022-09-09T06:43:44;71946.59;;;-148.52;50.26
3254;BME280;1639;42.804;23.342;2022-09-09T06:46:12;71942.44;;;-148.52;48.81
3254;BME280;1639;42.804;23.342;2022-09-09T06:48:42;71946.59;;;-148.52;49.48
3254;BME280;1639;42.804;23.342;2022-09-09T06:51:15;71950.72;;;-148.52;49.31
3254;BME280;1639;42.804;23.342;2022-09-09T06:53:42;71954.84;;;-148.52;50.01
3254;BME280;1639;42.804;23.342;2022-09-09T06:58:34;71921.78;;;-148.52;50.01
3254;BME280;1639;42.804;23.342;2022-09-09T07:01:04;71896.97;;;-148.52;48.95
3254;BME280;1639;42.804;23.342;2022-09-09T07:03:31;71851.47;;;-148.52;47.83
3254;BME280;1639;42.804;23.342;2022-09-09T07:05:57;71830.81;;;-148.52;47.59
3254;BME280;1639;42.804;23.342;2022-09-09T07:08:23;71832.88;;;-148.52;47.25
3254;BME280;1639;42.804;23.342;2022-09-09T07:10:48;71814.25;;;-148.52;46.23
3254;BME280;1639;42.804;23.342;2022-09-09T07:13:14;71808.06;;;-148.52;46.40
3254;BME280;1639;42.804;23.342;2022-09-09T07:15:41;71810.13;;;-148.52;46.34
3254;BME280;1639;42.804;23.342;2022-09-09T07:18:06;71772.91;;;-148.52;46.41
3254;BME280;1639;42.804;23.342;2022-09-09T07:20:32;71748.09;;;-148.52;45.76
3254;BME280;1639;42.804;23.342;2022-09-09T07:22:57;71725.34;;;-148.52;45.34
3254;BME280;1639;42.804;23.342;2022-09-09T07:25:24;71721.22;;;-148.52;45.19
3254;BME280;1639;42.804;23.342;2022-09-09T07:27:53;71715.00;;;-148.52;45.00
3254;BME280;1639;42.804;23.342;2022-09-09T07:30:18;71743.97;;;-148.52;45.22
3254;BME280;1639;42.804;23.342;2022-09-09T07:32:44;71719.16;;;-148.52;45.12
3254;BME280;1639;42.804;23.342;2022-09-09T07:35:10;71675.72;;;-148.52;44.42
3254;BME280;1639;42.804;23.342;2022-09-09T07:37:36;71665.38;;;-148.52;43.66
3254;BME280;1639;42.804;23.342;2022-09-09T07:40:03;71636.44;;;-148.52;44.17
3254;BME280;1639;42.804;23.342;2022-09-09T07:42:30;71686.06;;;-148.52;44.00
3254;BME280;1639;42.804;23.342;2022-09-09T07:44:55;71663.31;;;-148.52;43.81
3254;BME280;1639;42.804;23.342;2022-09-09T07:47:21;71663.31;;;-148.52;44.11
3254;BME280;1639;42.804;23.342;2022-09-09T07:49:47;71690.19;;;-148.52;43.80
3254;BME280;1639;42.804;23.342;2022-09-09T07:52:15;71644.72;;;-148.52;45.17
3254;BME280;1639;42.804;23.342;2022-09-09T07:54:40;71605.44;;;-148.52;44.32
3254;BME280;1639;42.804;23.342;2022-09-09T07:57:06;71578.56;;;-148.52;42.90
3254;BME280;1639;42.804;23.342;2022-09-09T07:59:32;71570.28;;;-148.52;42.48
3254;BME280;1639;42.804;23.342;2022-09-09T08:01:57;71557.88;;;-148.52;42.09
3254;BME280;1639;42.804;23.342;2022-09-09T08:04:24;71582.69;;;-148.52;42.17
3254;BME280;1639;42.804;23.342;2022-09-09T08:06:53;71549.63;;;-148.52;43.63
3254;BME280;1639;42.804;23.342;2022-09-09T08:09:19;71535.13;;;-148.52;41.87
3254;BME280;1639;42.804;23.342;2022-09-09T08:11:45;71541.34;;;-148.52;41.77
3254;BME280;1639;42.804;23.342;2022-09-09T08:14:11;71547.53;;;-148.52;41.58
3254;BME280;1639;42.804;23.342;2022-09-09T08:16:46;71526.88;;;-148.52;42.13
3254;BME280;1639;42.804;23.342;2022-09-09T08:19:12;71487.59;;;-148.52;40.79
3254;BME280;1639;42.804;23.342;2022-09-09T08:21:39;71458.66;;;-148.52;40.54
3254;BME280;1639;42.804;23.342;2022-09-09T08:24:05;71442.09;;;-148.52;39.79
3254;BME280;1639;42.804;23.342;2022-09-09T08:26:34;71413.16;;;-148.52;39.85
3254;BME280;1639;42.804;23.342;2022-09-09T08:29:01;71417.28;;;-148.52;40.42
3254;BME280;1639;42.804;23.342;2022-09-09T08:31:27;71458.66;;;-148.52;40.39
3254;BME280;1639;42.804;23.342;2022-09-09T08:33:54;71466.91;;;-148.52;41.10
3254;BME280;1639;42.804;23.342;2022-09-09T08:36:22;71450.38;;;-148.52;40.53
3254;BME280;1639;42.804;23.342;2022-09-09T08:38:52;71479.31;;;-148.52;40.94
3254;BME280;1639;42.804;23.342;2022-09-09T08:43:58;71473.13;;;-148.52;41.03
3254;BME280;1639;42.804;23.342;2022-09-09T08:46:38;71452.44;;;-148.52;41.08
3254;BME280;1639;42.804;23.342;2022-09-09T08:52:26;71413.16;;;-148.52;40.05
3254;BME280;1639;42.804;23.342;2022-09-09T08:54:58;71423.50;;;-148.52;40.36
3254;BME280;1639;42.804;23.342;2022-09-09T08:57:28;71411.09;;;-148.52;40.05
3254;BME280;1639;42.804;23.342;2022-09-09T08:59:56;71419.38;;;-148.52;40.56
3254;BME280;1639;42.804;23.342;2022-09-09T09:02:47;71431.78;;;-148.52;40.91
3254;BME280;1639;42.804;23.342;2022-09-09T09:08:36;71359.41;;;-148.52;40.22
3254;BME280;1639;42.804;23.342;2022-09-09T09:11:06;71338.75;;;-148.52;39.01
3254;BME280;1639;42.804;23.342;2022-09-09T09:13:53;71318.06;;;-148.52;39.56
3254;BME280;1639;42.804;23.342;2022-09-09T09:16:29;71351.13;;;-148.52;39.94
3254;BME280;1639;42.804;23.342;2022-09-09T09:18:58;71334.59;;;-148.52;39.07
3254;BME280;1639;42.804;23.342;2022-09-09T09:21:48;71342.88;;;-148.52;39.29
3254;BME280;1639;42.804;23.342;2022-09-09T09:24:20;71313.94;;;-148.52;39.31
3254;BME280;1639;42.804;23.342;2022-09-09T09:26:48;71332.53;;;-148.52;39.42
3254;BME280;1639;42.804;23.342;2022-09-09T09:29:17;71318.06;;;-148.52;39.09
3254;BME280;1639;42.804;23.342;2022-09-09T09:31:50;71318.06;;;-148.52;40.18
3254;BME280;1639;42.804;23.342;2022-09-09T09:34:16;71330.47;;;-148.52;39.34
3254;BME280;1639;42.804;23.342;2022-09-09T09:36:53;71309.78;;;-148.52;39.35
3254;BME280;1639;42.804;23.342;2022-09-09T09:39:36;71276.72;;;-148.52;40.45
3254;BME280;1639;42.804;23.342;2022-09-09T09:42:11;71251.91;;;-148.52;39.46
3254;BME280;1639;42.804;23.342;2022-09-09T09:44:39;71220.91;;;-148.52;39.04
3254;BME280;1639;42.804;23.342;2022-09-09T09:47:23;71229.16;;;-148.52;38.48
3254;BME280;1639;42.804;23.342;2022-09-09T09:49:56;71256.03;;;-148.52;38.58
3254;BME280;1639;42.804;23.342;2022-09-09T09:52:26;71264.31;;;-148.52;39.11
3254;BME280;1639;42.804;23.342;2022-09-09T09:54:54;71247.78;;;-148.52;38.92
3254;BME280;1639;42.804;23.342;2022-09-09T09:57:26;71276.72;;;-148.52;39.28
3254;BME280;1639;42.804;23.342;2022-09-09T10:00:22;71270.50;;;-148.52;39.65
3254;BME280;1639;42.804;23.342;2022-09-09T10:02:48;71369.75;;;-148.52;40.52
3254;BME280;1639;42.804;23.342;2022-09-09T10:05:27;71324.25;;;-148.52;40.94
3254;BME280;1639;42.804;23.342;2022-09-09T10:08:14;71307.72;;;-148.52;40.53
3254;BME280;1639;42.804;23.342;2022-09-09T10:19:04;71373.88;;;-148.52;41.33
3254;BME280;1639;42.804;23.342;2022-09-09T10:32:12;71404.91;;;-148.52;41.86
3254;BME280;1639;42.804;23.342;2022-09-09T10:35:02;71413.16;;;-148.52;41.68
3254;BME280;1639;42.804;23.342;2022-09-09T10:37:44;71413.16;;;-148.52;41.29
3254;BME280;1639;42.804;23.342;2022-09-09T10:40:30;71404.91;;;-148.52;42.30
3254;BME280;1639;42.804;23.342;2022-09-09T10:49:09;71351.13;;;-148.52;41.93
3254;BME280;1639;42.804;23.342;2022-09-09T10:54:51;71338.75;;;-148.52;41.83
3254;BME280;1639;42.804;23.342;2022-09-09T10:57:39;71334.59;;;-148.52;40.86
3254;BME280;1639;42.804;23.342;2022-09-09T11:00:15;71309.78;;;-148.52;41.01
3254;BME280;1639;42.804;23.342;2022-09-09T11:02:42;71320.13;;;-148.52;41.66
3254;BME280;1639;42.804;23.342;2022-09-09T11:05:24;71305.66;;;-148.52;41.81
3254;BME280;1639;42.804;23.342;2022-09-09T11:08:14;71309.78;;;-148.52;41.76
3254;BME280;1639;42.804;23.342;2022-09-09T11:10:44;71295.31;;;-148.52;42.08
3254;BME280;1639;42.804;23.342;2022-09-09T11:16:17;71303.59;;;-148.52;42.67
3254;BME280;1639;42.804;23.342;2022-09-09T11:18:46;71293.25;;;-148.52;42.97
3254;BME280;1639;42.804;23.342;2022-09-09T11:21:34;71305.66;;;-148.52;42.93
3254;BME280;1639;42.804;23.342;2022-09-09T11:24:06;71311.84;;;-148.52;43.17
3254;BME280;1639;42.804;23.342;2022-09-09T11:26:44;71313.94;;;-148.52;43.17
3254;BME280;1639;42.804;23.342;2022-09-09T11:38:26;71274.66;;;-148.52;43.45
3254;BME280;1639;42.804;23.342;2022-09-09T11:40:59;71243.63;;;-148.52;42.50
3254;BME280;1639;42.804;23.342;2022-09-09T11:43:41;71229.16;;;-148.52;42.21
3254;BME280;1639;42.804;23.342;2022-09-09T11:46:08;71231.22;;;-148.52;42.45
3254;BME280;1639;42.804;23.342;2022-09-09T11:48:38;71229.16;;;-148.52;42.01
3254;BME280;1639;42.804;23.342;2022-09-09T11:51:12;71229.16;;;-148.52;42.82
3254;BME280;1639;42.804;23.342;2022-09-09T11:59:04;71177.50;;;-148.52;44.29
3254;BME280;1639;42.804;23.342;2022-09-09T12:01:41;71169.22;;;-148.52;43.36
3254;BME280;1639;42.804;23.342;2022-09-09T12:07:04;71160.94;;;-148.52;43.30
3254;BME280;1639;42.804;23.342;2022-09-09T12:10:04;71194.03;;;-148.52;43.19
3254;BME280;1639;42.804;23.342;2022-09-09T12:12:34;71204.38;;;-148.52;43.46
3254;BME280;1639;42.804;23.342;2022-09-09T12:15:16;71181.63;;;-148.52;44.38
3254;BME280;1639;42.804;23.342;2022-09-09T12:17:53;71175.41;;;-148.52;43.33
3254;BME280;1639;42.804;23.342;2022-09-09T12:20:21;71169.22;;;-148.52;43.44
3254;BME280;1639;42.804;23.342;2022-09-09T12:25:57;71140.28;;;-148.52;43.67
3254;BME280;1639;42.804;23.342;2022-09-09T12:31:24;71080.31;;;-148.52;42.77
3254;BME280;1639;42.804;23.342;2022-09-09T12:33:51;71063.78;;;-148.52;43.35
3254;BME280;1639;42.804;23.342;2022-09-09T12:36:38;71055.53;;;-148.52;42.74
3254;BME280;1639;42.804;23.342;2022-09-09T12:39:22;71045.19;;;-148.52;42.80
3254;BME280;1639;42.804;23.342;2022-09-09T12:41:54;71041.03;;;-148.52;42.60
3254;BME280;1639;42.804;23.342;2022-09-09T12:44:22;71032.78;;;-148.52;41.76
3254;BME280;1639;42.804;23.342;2022-09-09T12:46:48;71065.84;;;-148.52;43.10
3254;BME280;1639;42.804;23.342;2022-09-09T12:49:33;71057.59;;;-148.52;43.14
3254;BME280;1639;42.804;23.342;2022-09-09T12:52:06;71053.44;;;-148.52;43.18
3254;BME280;1639;42.804;23.342;2022-09-09T12:54:35;71043.13;;;-148.52;42.82
3254;BME280;1639;42.804;23.342;2022-09-09T12:57:02;71024.50;;;-148.52;42.34
3254;BME280;1639;42.804;23.342;2022-09-09T12:59:36;71020.38;;;-148.52;42.80
3254;BME280;1639;42.804;23.342;2022-09-09T13:02:10;71032.78;;;-148.52;42.93
3254;BME280;1639;42.804;23.342;2022-09-09T13:04:36;71053.44;;;-148.52;42.82
3254;BME280;1639;42.804;23.342;2022-09-09T13:07:08;71043.13;;;-148.52;43.01
3254;BME280;1639;42.804;23.342;2022-09-09T13:09:37;71036.91;;;-148.52;43.59
3254;BME280;1639;42.804;23.342;2022-09-09T13:12:03;71041.03;;;-148.52;43.26
3254;BME280;1639;42.804;23.342;2022-09-09T13:14:34;71032.78;;;-148.52;43.40
3254;BME280;1639;42.804;23.342;2022-09-09T13:17:04;71047.25;;;-148.52;43.27
3254;BME280;1639;42.804;23.342;2022-09-09T13:19:34;71061.72;;;-148.52;42.98
3254;BME280;1639;42.804;23.342;2022-09-09T13:22:14;71051.38;;;-148.52;43.33
3254;BME280;1639;42.804;23.342;2022-09-09T13:24:39;71028.66;;;-148.52;43.72
3254;BME280;1639;42.804;23.342;2022-09-09T13:27:26;71086.53;;;-148.52;43.63
3254;BME280;1639;42.804;23.342;2022-09-09T13:29:54;71055.53;;;-148.52;43.61
3254;BME280;1639;42.804;23.342;2022-09-09T13:32:20;71057.59;;;-148.52;44.04
3254;BME280;1639;42.804;23.342;2022-09-09T13:34:59;71049.31;;;-148.52;44.07
3254;BME280;1639;42.804;23.342;2022-09-09T13:37:36;71051.38;;;-148.52;44.18
3254;BME280;1639;42.804;23.342;2022-09-09T13:40:04;71063.78;;;-148.52;42.72
3254;BME280;1639;42.804;23.342;2022-09-09T13:42:32;71063.78;;;-148.52;42.57
3254;BME280;1639;42.804;23.342;2022-09-09T13:45:00;71092.72;;;-148.52;42.96
3254;BME280;1639;42.804;23.342;2022-09-09T13:47:32;71086.53;;;-148.52;43.26
3254;BME280;1639;42.804;23.342;2022-09-09T13:50:18;71096.88;;;-148.52;43.49
3254;BME280;1639;42.804;23.342;2022-09-09T13:52:44;71094.78;;;-148.52;44.35
3254;BME280;1639;42.804;23.342;2022-09-09T13:55:09;71098.94;;;-148.52;43.83
3254;BME280;1639;42.804;23.342;2022-09-09T13:57:35;71119.59;;;-148.52;44.44
3254;BME280;1639;42.804;23.342;2022-09-09T14:00:00;71101.00;;;-148.52;44.16
3254;BME280;1639;42.804;23.342;2022-09-09T14:02:26;71086.53;;;-148.52;44.04
3254;BME280;1639;42.804;23.342;2022-09-09T14:04:51;71094.78;;;-148.52;44.71
3254;BME280;1639;42.804;23.342;2022-09-09T14:07:20;71098.94;;;-148.52;44.98
3254;BME280;1639;42.804;23.342;2022-09-09T14:09:46;71090.66;;;-148.52;44.57
3254;BME280;1639;42.804;23.342;2022-09-09T14:12:15;71084.47;;;-148.52;44.33
3254;BME280;1639;42.804;23.342;2022-09-09T14:14:41;71065.84;;;-148.52;44.34
3254;BME280;1639;42.804;23.342;2022-09-09T14:17:08;71057.59;;;-148.52;44.23
3254;BME280;1639;42.804;23.342;2022-09-09T14:19:33;71045.19;;;-148.52;43.45
3254;BME280;1639;42.804;23.342;2022-09-09T14:21:59;71053.44;;;-148.52;42.09
3254;BME280;1639;42.804;23.342;2022-09-09T14:24:26;71057.59;;;-148.52;43.29
3254;BME280;1639;42.804;23.342;2022-09-09T14:26:53;71055.53;;;-148.52;43.36
3254;BME280;1639;42.804;23.342;2022-09-09T14:29:18;71070.00;;;-148.52;42.08
3254;BME280;1639;42.804;23.342;2022-09-09T14:31:44;71061.72;;;-148.52;43.09
3254;BME280;1639;42.804;23.342;2022-09-09T14:34:09;71045.19;;;-148.52;43.31